Cantua Creek, CA

10:52 PM PDT on August 22, 2014 (GMT -0700)
Lemoore Naval Air Station | Change Station
CLOSE
Current Station
Airport
Location: Lemoore NAS,
Elevation: 233 ft
Nearby Weather Stations

Elev 233 ft 36.33 °N, 119.95 °W | Updated 56 minutes ago

Clear
Clear
80 °F
Feels Like 80 °F
N
12
Wind Variable Wind from NW

Today
High -- | Low -- °F
--% Chance of Precip.
Yesterday
High -- | Low -- °F
Precip. -- in
6:24 AM 7:43 PM
Waning Crescent, 5% visible
Pressure 29.83 in
Visibility 10.0 miles
Clouds Clear
Dew Point 50 °F
Humidity 35%
Rainfall 0.00 in
Snow Depth Not available.
UV 0 out of 12
Pollen 9.00 out of 12
Air Quality Not available.
Flu Activity Not available.
METAR KNLC 230456Z AUTO 32010KT 10SM CLR 27/10 A2983 RMK AO2 SLP101 T02670100

More Conditions Fewer Conditions

Pressure 29.83 in
Visibility 10.0 miles
Clouds Clear
Dew Point 50 °F
Humidity 35%
Rainfall 0.00 in
Snow Depth Not available.
UV 0 out of 12
Pollen 9.00 out of 12
Air Quality Not available.
Flu Activity Not available.
METAR KNLC 230456Z AUTO 32010KT 10SM CLR 27/10 A2983 RMK AO2 SLP101 T02670100

More Conditions Fewer Conditions

10-Day Weather Forecast

Almanac

Astronomy

Aug. 22, 2014 Rise Set
Actual Time 6:24 AM PDT 7:43 PM PDT
Civil Twilight 5:57 AM PDT 8:09 PM PDT
Nautical Twilight 5:25 AM PDT 8:42 PM PDT
Astronomical Twilight 4:51 AM PDT 9:15 PM PDT
Moon 3:53 AM PDT (8/22) 5:53 PM PDT (8/22)
Length of Visible Light 14h 12m
Length of Day
13h 18m
Tomorrow will be 2m 8s shorter.
Waning Crescent, 5% of the Moon is Illuminated
Aug 23
Waning Crescent
Aug 25
New
Sep 2
First Quarter
Sep 8
Full
Sep 15
Last Quarter

Yesterday's Extremes

State Highs State Lows

Community

WunderPhotos

Upload Photos

1,746,372 photos uploaded!

WunderBlogs® & News

By Dr. Jeff Masters
Director of Meteorology, Weather Underground
By Kari Strenfel
Meteorologist, Weather Underground
By Christopher C. Burt
Weather Historian, Weather Underground
August 23, 2014
August 23, 2014
August 22, 2014

Nearby

Snow Depth

Station Depth Elevation
Leavitt Lake 1 in 9400 ft
Leavitt Meadows 1 in 7200 ft
Summit Meadow 1 in 9122 ft
Blue Lakes 0 in 8000 ft
Forestdale Creek 0 in 8029 ft

Earthquake Activity

City Distance Mag. Time & Date
Coalinga, California 35 miles 2.5 7:03 AM PDT
2014-08-18
Berkeley, California 139 miles 2.6 7:41 PM PDT
2014-08-16
Minimum magnitude displayed is 2.5.

Coastal Water Temperatures

Place Temperature
No Stations Reporting

Nearby Weather Stations